sensor_id;sensor_type;location;lat;lon;timestamp;P1;durP1;ratioP1;P2;durP2;ratioP2
16800;SDS011;8518;53.236;10.384;2023-02-13T11:10:31;9.73;;;7.73;;
16800;SDS011;8518;53.236;10.384;2023-02-13T11:16:53;10.30;;;7.03;;
16800;SDS011;8518;53.236;10.384;2023-02-13T11:19:36;9.23;;;7.03;;
16800;SDS011;8518;53.236;10.384;2023-02-13T11:22:25;8.93;;;6.80;;
16800;SDS011;8518;53.236;10.384;2023-02-13T11:25:19;9.27;;;7.43;;
16800;SDS011;8518;53.236;10.384;2023-02-13T11:27:50;8.97;;;7.37;;
16800;SDS011;8518;53.236;10.384;2023-02-13T11:30:37;11.47;;;7.77;;
16800;SDS011;8518;53.236;10.384;2023-02-13T11:36:06;10.77;;;7.30;;
16800;SDS011;8518;53.236;10.384;2023-02-13T11:38:40;10.17;;;7.17;;
16800;SDS011;8518;53.236;10.384;2023-02-13T11:43:33;9.53;;;6.87;;
16800;SDS011;8518;53.236;10.384;2023-02-13T11:46:02;7.83;;;6.43;;
16800;SDS011;8518;53.236;10.384;2023-02-13T11:48:33;9.57;;;6.67;;
16800;SDS011;8518;53.236;10.384;2023-02-13T11:50:59;9.67;;;6.60;;
16800;SDS011;8518;53.236;10.384;2023-02-13T11:56:17;7.83;;;7.00;;
16800;SDS011;8518;53.236;10.384;2023-02-13T11:58:42;9.70;;;7.33;;
16800;SDS011;8518;53.236;10.384;2023-02-13T12:01:41;12.03;;;7.10;;
16800;SDS011;8518;53.236;10.384;2023-02-13T12:04:02;9.23;;;7.30;;
16800;SDS011;8518;53.236;10.384;2023-02-13T12:06:31;10.77;;;7.10;;
16800;SDS011;8518;53.236;10.384;2023-02-13T12:09:08;9.07;;;7.40;;
16800;SDS011;8518;53.236;10.384;2023-02-13T12:11:54;8.87;;;7.50;;
16800;SDS011;8518;53.236;10.384;2023-02-13T12:14:28;9.17;;;7.53;;
16800;SDS011;8518;53.236;10.384;2023-02-13T12:19:55;8.77;;;7.60;;
16800;SDS011;8518;53.236;10.384;2023-02-13T12:28:14;10.37;;;7.60;;
16800;SDS011;8518;53.236;10.384;2023-02-13T12:30:56;9.17;;;7.60;;
16800;SDS011;8518;53.236;10.384;2023-02-13T12:33:53;14.70;;;8.37;;
16800;SDS011;8518;53.236;10.384;2023-02-13T12:39:36;10.27;;;7.80;;
16800;SDS011;8518;53.236;10.384;2023-02-13T12:45:27;10.20;;;8.03;;
16800;SDS011;8518;53.236;10.384;2023-02-13T12:51:00;11.90;;;7.73;;
16800;SDS011;8518;53.236;10.384;2023-02-13T12:53:40;9.60;;;8.33;;
16800;SDS011;8518;53.236;10.384;2023-02-13T12:59:04;10.13;;;8.37;;
16800;SDS011;8518;53.236;10.384;2023-02-13T13:09:46;9.90;;;8.23;;
16800;SDS011;8518;53.236;10.384;2023-02-13T13:17:37;13.47;;;9.93;;
16800;SDS011;8518;53.236;10.384;2023-02-13T13:26:10;11.53;;;9.03;;
16800;SDS011;8518;53.236;10.384;2023-02-13T13:28:33;12.63;;;10.07;;
16800;SDS011;8518;53.236;10.384;2023-02-13T13:31:09;13.00;;;10.47;;
16800;SDS011;8518;53.236;10.384;2023-02-13T13:33:37;13.30;;;9.87;;
16800;SDS011;8518;53.236;10.384;2023-02-13T13:38:54;14.50;;;10.47;;
16800;SDS011;8518;53.236;10.384;2023-02-13T13:41:27;13.63;;;10.23;;
16800;SDS011;8518;53.236;10.384;2023-02-13T13:50:00;14.47;;;10.10;;
16800;SDS011;8518;53.236;10.384;2023-02-13T13:52:31;13.60;;;9.73;;
16800;SDS011;8518;53.236;10.384;2023-02-13T13:55:03;12.10;;;9.93;;
16800;SDS011;8518;53.236;10.384;2023-02-13T14:09:03;12.30;;;9.60;;
16800;SDS011;8518;53.236;10.384;2023-02-13T14:11:56;14.57;;;11.13;;
16800;SDS011;8518;53.236;10.384;2023-02-13T14:16:51;14.00;;;10.57;;
16800;SDS011;8518;53.236;10.384;2023-02-13T14:19:36;14.30;;;10.43;;
16800;SDS011;8518;53.236;10.384;2023-02-13T14:25:17;13.30;;;10.70;;
16800;SDS011;8518;53.236;10.384;2023-02-13T14:27:56;15.40;;;11.80;;
16800;SDS011;8518;53.236;10.384;2023-02-13T14:30:28;13.00;;;10.50;;
16800;SDS011;8518;53.236;10.384;2023-02-13T14:33:22;14.07;;;10.87;;
16800;SDS011;8518;53.236;10.384;2023-02-13T14:38:27;13.33;;;11.13;;
16800;SDS011;8518;53.236;10.384;2023-02-13T14:40:53;13.43;;;11.07;;
16800;SDS011;8518;53.236;10.384;2023-02-13T14:46:38;14.27;;;10.83;;
16800;SDS011;8518;53.236;10.384;2023-02-13T14:48:51;14.53;;;10.70;;
16800;SDS011;8518;53.236;10.384;2023-02-13T14:51:33;13.80;;;10.73;;
16800;SDS011;8518;53.236;10.384;2023-02-13T14:54:04;13.50;;;10.67;;
16800;SDS011;8518;53.236;10.384;2023-02-13T14:56:30;14.97;;;11.00;;
16800;SDS011;8518;53.236;10.384;2023-02-13T14:59:00;13.90;;;10.63;;
16800;SDS011;8518;53.236;10.384;2023-02-13T15:01:58;14.43;;;11.57;;
16800;SDS011;8518;53.236;10.384;2023-02-13T15:04:40;11.90;;;9.83;;
16800;SDS011;8518;53.236;10.384;2023-02-13T15:07:18;14.20;;;10.87;;
16800;SDS011;8518;53.236;10.384;2023-02-13T15:09:50;13.20;;;10.27;;
16800;SDS011;8518;53.236;10.384;2023-02-13T15:15:33;15.03;;;11.57;;
16800;SDS011;8518;53.236;10.384;2023-02-13T15:18:07;16.27;;;12.70;;
16800;SDS011;8518;53.236;10.384;2023-02-13T15:20:36;15.40;;;12.00;;
16800;SDS011;8518;53.236;10.384;2023-02-13T15:23:15;13.90;;;11.57;;
16800;SDS011;8518;53.236;10.384;2023-02-13T15:25:45;15.67;;;12.70;;
16800;SDS011;8518;53.236;10.384;2023-02-13T15:28:17;16.70;;;12.23;;
16800;SDS011;8518;53.236;10.384;2023-02-13T15:30:55;15.70;;;11.80;;
16800;SDS011;8518;53.236;10.384;2023-02-13T15:36:39;14.17;;;11.33;;
16800;SDS011;8518;53.236;10.384;2023-02-13T15:39:15;16.53;;;11.83;;
16800;SDS011;8518;53.236;10.384;2023-02-13T15:44:43;17.00;;;11.73;;
16800;SDS011;8518;53.236;10.384;2023-02-13T15:47:17;18.00;;;13.13;;
16800;SDS011;8518;53.236;10.384;2023-02-13T15:49:50;14.67;;;11.87;;
16800;SDS011;8518;53.236;10.384;2023-02-13T15:52:33;18.40;;;12.97;;
16800;SDS011;8518;53.236;10.384;2023-02-13T15:55:02;16.23;;;12.50;;
16800;SDS011;8518;53.236;10.384;2023-02-13T15:57:28;18.20;;;13.20;;
16800;SDS011;8518;53.236;10.384;2023-02-13T15:59:54;15.17;;;12.07;;
16800;SDS011;8518;53.236;10.384;2023-02-13T16:05:19;17.97;;;13.70;;
16800;SDS011;8518;53.236;10.384;2023-02-13T16:07:50;16.80;;;12.23;;
16800;SDS011;8518;53.236;10.384;2023-02-13T16:15:53;20.10;;;13.97;;
16800;SDS011;8518;53.236;10.384;2023-02-13T16:18:18;19.20;;;13.90;;
16800;SDS011;8518;53.236;10.384;2023-02-13T16:20:45;17.67;;;13.67;;
16800;SDS011;8518;53.236;10.384;2023-02-13T16:23:18;18.97;;;14.17;;
16800;SDS011;8518;53.236;10.384;2023-02-13T16:25:51;18.33;;;14.40;;
16800;SDS011;8518;53.236;10.384;2023-02-13T16:28:18;19.97;;;13.50;;
16800;SDS011;8518;53.236;10.384;2023-02-13T16:30:59;16.77;;;13.20;;
16800;SDS011;8518;53.236;10.384;2023-02-13T16:33:34;21.20;;;15.53;;
16800;SDS011;8518;53.236;10.384;2023-02-13T16:38:43;18.83;;;14.47;;
16800;SDS011;8518;53.236;10.384;2023-02-13T16:43:56;21.63;;;15.57;;
16800;SDS011;8518;53.236;10.384;2023-02-13T16:49:16;23.77;;;15.43;;
16800;SDS011;8518;53.236;10.384;2023-02-13T16:59:55;28.27;;;20.30;;
16800;SDS011;8518;53.236;10.384;2023-02-13T17:02:48;20.33;;;16.30;;
16800;SDS011;8518;53.236;10.384;2023-02-13T17:05:21;19.83;;;14.63;;
16800;SDS011;8518;53.236;10.384;2023-02-13T17:07:50;19.33;;;14.37;;
16800;SDS011;8518;53.236;10.384;2023-02-13T17:12:44;22.23;;;16.17;;
16800;SDS011;8518;53.236;10.384;2023-02-13T17:15:12;21.27;;;16.33;;
16800;SDS011;8518;53.236;10.384;2023-02-13T17:17:39;21.60;;;16.27;;
16800;SDS011;8518;53.236;10.384;2023-02-13T17:20:05;20.73;;;16.33;;
16800;SDS011;8518;53.236;10.384;2023-02-13T17:22:53;19.47;;;15.57;;
16800;SDS011;8518;53.236;10.384;2023-02-13T17:25:24;20.93;;;15.80;;
16800;SDS011;8518;53.236;10.384;2023-02-13T17:27:53;22.27;;;16.70;;
16800;SDS011;8518;53.236;10.384;2023-02-13T17:30:20;20.63;;;15.80;;
16800;SDS011;8518;53.236;10.384;2023-02-13T17:32:52;21.13;;;15.63;;
16800;SDS011;8518;53.236;10.384;2023-02-13T17:35:33;22.77;;;16.20;;
16800;SDS011;8518;53.236;10.384;2023-02-13T17:38:02;21.93;;;16.33;;
16800;SDS011;8518;53.236;10.384;2023-02-13T17:40:30;25.00;;;17.73;;
16800;SDS011;8518;53.236;10.384;2023-02-13T17:43:00;24.07;;;17.33;;
16800;SDS011;8518;53.236;10.384;2023-02-13T17:45:35;25.93;;;18.70;;
16800;SDS011;8518;53.236;10.384;2023-02-13T17:48:00;22.40;;;17.90;;
16800;SDS011;8518;53.236;10.384;2023-02-13T17:50:27;23.60;;;17.63;;
16800;SDS011;8518;53.236;10.384;2023-02-13T17:52:57;22.17;;;17.07;;
16800;SDS011;8518;53.236;10.384;2023-02-13T17:55:27;24.67;;;19.07;;
16800;SDS011;8518;53.236;10.384;2023-02-13T17:57:54;20.23;;;15.93;;
16800;SDS011;8518;53.236;10.384;2023-02-13T18:00:21;21.40;;;16.60;;
16800;SDS011;8518;53.236;10.384;2023-02-13T18:06:11;20.27;;;15.80;;
16800;SDS011;8518;53.236;10.384;2023-02-13T18:08:37;20.53;;;16.20;;
16800;SDS011;8518;53.236;10.384;2023-02-13T18:11:08;22.27;;;16.57;;
16800;SDS011;8518;53.236;10.384;2023-02-13T18:13:34;21.13;;;15.73;;
16800;SDS011;8518;53.236;10.384;2023-02-13T18:16:07;20.43;;;15.83;;
16800;SDS011;8518;53.236;10.384;2023-02-13T18:18:33;22.90;;;16.90;;
16800;SDS011;8518;53.236;10.384;2023-02-13T18:20:59;23.17;;;16.73;;
16800;SDS011;8518;53.236;10.384;2023-02-13T18:23:27;23.63;;;18.07;;
16800;SDS011;8518;53.236;10.384;2023-02-13T18:25:53;21.97;;;16.30;;
16800;SDS011;8518;53.236;10.384;2023-02-13T18:28:23;22.53;;;16.90;;
16800;SDS011;8518;53.236;10.384;2023-02-13T18:30:49;22.83;;;17.40;;
16800;SDS011;8518;53.236;10.384;2023-02-13T18:33:17;23.83;;;16.90;;
16800;SDS011;8518;53.236;10.384;2023-02-13T18:35:43;22.40;;;16.53;;
16800;SDS011;8518;53.236;10.384;2023-02-13T18:38:08;21.13;;;16.17;;
16800;SDS011;8518;53.236;10.384;2023-02-13T18:40:34;23.33;;;17.17;;
16800;SDS011;8518;53.236;10.384;2023-02-13T18:43:03;20.60;;;16.43;;
16800;SDS011;8518;53.236;10.384;2023-02-13T18:45:29;23.23;;;17.50;;
16800;SDS011;8518;53.236;10.384;2023-02-13T18:47:55;22.07;;;16.50;;
16800;SDS011;8518;53.236;10.384;2023-02-13T18:50:22;23.20;;;17.57;;
16800;SDS011;8518;53.236;10.384;2023-02-13T18:52:51;23.63;;;17.33;;
16800;SDS011;8518;53.236;10.384;2023-02-13T18:55:16;22.30;;;16.80;;
16800;SDS011;8518;53.236;10.384;2023-02-13T18:57:42;22.73;;;17.03;;
16800;SDS011;8518;53.236;10.384;2023-02-13T19:00:09;24.57;;;17.70;;
16800;SDS011;8518;53.236;10.384;2023-02-13T19:02:49;23.07;;;16.87;;
16800;SDS011;8518;53.236;10.384;2023-02-13T19:05:15;23.97;;;17.87;;
16800;SDS011;8518;53.236;10.384;2023-02-13T19:07:40;30.77;;;19.03;;
16800;SDS011;8518;53.236;10.384;2023-02-13T19:10:06;26.30;;;18.73;;
16800;SDS011;8518;53.236;10.384;2023-02-13T19:15:26;25.43;;;18.43;;
16800;SDS011;8518;53.236;10.384;2023-02-13T19:17:51;26.10;;;19.00;;
16800;SDS011;8518;53.236;10.384;2023-02-13T19:20:21;25.00;;;18.90;;
16800;SDS011;8518;53.236;10.384;2023-02-13T19:22:55;26.23;;;19.40;;
16800;SDS011;8518;53.236;10.384;2023-02-13T19:25:20;25.93;;;19.53;;
16800;SDS011;8518;53.236;10.384;2023-02-13T19:27:46;25.67;;;19.03;;
16800;SDS011;8518;53.236;10.384;2023-02-13T19:30:12;28.07;;;18.57;;
16800;SDS011;8518;53.236;10.384;2023-02-13T19:32:39;25.77;;;19.97;;
16800;SDS011;8518;53.236;10.384;2023-02-13T19:35:05;28.97;;;19.47;;
16800;SDS011;8518;53.236;10.384;2023-02-13T19:37:31;26.03;;;19.73;;
16800;SDS011;8518;53.236;10.384;2023-02-13T19:39:56;27.13;;;20.67;;
16800;SDS011;8518;53.236;10.384;2023-02-13T19:42:27;26.73;;;18.63;;
16800;SDS011;8518;53.236;10.384;2023-02-13T19:44:53;26.60;;;19.77;;
16800;SDS011;8518;53.236;10.384;2023-02-13T19:47:18;25.97;;;19.03;;
16800;SDS011;8518;53.236;10.384;2023-02-13T19:49:44;28.80;;;20.47;;
16800;SDS011;8518;53.236;10.384;2023-02-13T19:52:20;27.17;;;20.43;;
16800;SDS011;8518;53.236;10.384;2023-02-13T19:54:46;29.60;;;20.17;;
16800;SDS011;8518;53.236;10.384;2023-02-13T19:57:12;31.90;;;22.87;;
16800;SDS011;8518;53.236;10.384;2023-02-13T19:59:38;35.97;;;25.70;;
16800;SDS011;8518;53.236;10.384;2023-02-13T20:05:15;25.37;;;18.60;;
16800;SDS011;8518;53.236;10.384;2023-02-13T20:07:40;23.30;;;17.50;;
16800;SDS011;8518;53.236;10.384;2023-02-13T20:10:06;25.47;;;18.70;;
16800;SDS011;8518;53.236;10.384;2023-02-13T20:15:46;23.50;;;17.67;;
16800;SDS011;8518;53.236;10.384;2023-02-13T20:18:11;27.20;;;18.70;;
16800;SDS011;8518;53.236;10.384;2023-02-13T20:20:40;26.37;;;18.20;;
16800;SDS011;8518;53.236;10.384;2023-02-13T20:26:10;29.37;;;19.60;;
16800;SDS011;8518;53.236;10.384;2023-02-13T20:28:38;30.67;;;20.03;;
16800;SDS011;8518;53.236;10.384;2023-02-13T20:31:15;24.37;;;17.97;;
16800;SDS011;8518;53.236;10.384;2023-02-13T20:33:43;25.43;;;19.10;;
16800;SDS011;8518;53.236;10.384;2023-02-13T20:36:22;26.33;;;18.80;;
16800;SDS011;8518;53.236;10.384;2023-02-13T20:38:51;26.33;;;18.17;;
16800;SDS011;8518;53.236;10.384;2023-02-13T20:41:20;30.07;;;22.30;;
16800;SDS011;8518;53.236;10.384;2023-02-13T20:43:47;31.47;;;21.67;;
16800;SDS011;8518;53.236;10.384;2023-02-13T20:46:16;32.33;;;22.73;;
16800;SDS011;8518;53.236;10.384;2023-02-13T20:48:43;27.03;;;19.60;;
16800;SDS011;8518;53.236;10.384;2023-02-13T20:51:11;26.93;;;19.27;;
16800;SDS011;8518;53.236;10.384;2023-02-13T20:53:38;27.83;;;18.97;;
16800;SDS011;8518;53.236;10.384;2023-02-13T20:56:20;25.27;;;19.00;;
16800;SDS011;8518;53.236;10.384;2023-02-13T20:59:03;27.03;;;18.10;;
16800;SDS011;8518;53.236;10.384;2023-02-13T21:05:09;27.50;;;19.63;;
16800;SDS011;8518;53.236;10.384;2023-02-13T21:07:48;27.07;;;19.40;;
16800;SDS011;8518;53.236;10.384;2023-02-13T21:10:14;26.57;;;18.43;;
16800;SDS011;8518;53.236;10.384;2023-02-13T21:12:40;24.63;;;18.47;;
16800;SDS011;8518;53.236;10.384;2023-02-13T21:15:05;24.10;;;18.53;;
16800;SDS011;8518;53.236;10.384;2023-02-13T21:17:33;27.67;;;18.83;;
16800;SDS011;8518;53.236;10.384;2023-02-13T21:19:59;26.27;;;18.73;;
16800;SDS011;8518;53.236;10.384;2023-02-13T21:22:31;24.53;;;18.23;;
16800;SDS011;8518;53.236;10.384;2023-02-13T21:24:57;28.07;;;19.80;;
16800;SDS011;8518;53.236;10.384;2023-02-13T21:27:22;26.17;;;19.27;;
16800;SDS011;8518;53.236;10.384;2023-02-13T21:29:49;28.87;;;20.40;;
16800;SDS011;8518;53.236;10.384;2023-02-13T21:32:22;31.07;;;23.33;;
16800;SDS011;8518;53.236;10.384;2023-02-13T21:34:47;28.80;;;21.53;;
16800;SDS011;8518;53.236;10.384;2023-02-13T21:37:13;30.07;;;20.50;;
16800;SDS011;8518;53.236;10.384;2023-02-13T21:39:41;29.03;;;20.60;;
16800;SDS011;8518;53.236;10.384;2023-02-13T21:42:10;29.70;;;21.03;;
16800;SDS011;8518;53.236;10.384;2023-02-13T21:44:35;28.03;;;20.37;;
16800;SDS011;8518;53.236;10.384;2023-02-13T21:47:01;29.20;;;20.43;;
16800;SDS011;8518;53.236;10.384;2023-02-13T21:49:27;28.90;;;20.37;;
16800;SDS011;8518;53.236;10.384;2023-02-13T21:52:05;28.43;;;19.70;;
16800;SDS011;8518;53.236;10.384;2023-02-13T21:54:30;28.00;;;20.37;;
16800;SDS011;8518;53.236;10.384;2023-02-13T21:56:56;30.87;;;21.33;;
16800;SDS011;8518;53.236;10.384;2023-02-13T21:59:22;29.47;;;21.70;;
16800;SDS011;8518;53.236;10.384;2023-02-13T22:01:49;30.07;;;20.83;;
16800;SDS011;8518;53.236;10.384;2023-02-13T22:04:14;30.77;;;22.33;;
16800;SDS011;8518;53.236;10.384;2023-02-13T22:06:41;34.50;;;22.37;;
16800;SDS011;8518;53.236;10.384;2023-02-13T22:09:11;34.73;;;22.40;;
16800;SDS011;8518;53.236;10.384;2023-02-13T22:11:41;33.50;;;23.07;;
16800;SDS011;8518;53.236;10.384;2023-02-13T22:14:10;33.30;;;21.63;;
16800;SDS011;8518;53.236;10.384;2023-02-13T22:16:40;35.57;;;22.97;;
16800;SDS011;8518;53.236;10.384;2023-02-13T22:19:06;32.60;;;22.60;;
16800;SDS011;8518;53.236;10.384;2023-02-13T22:21:33;35.90;;;23.90;;
16800;SDS011;8518;53.236;10.384;2023-02-13T22:24:00;34.37;;;22.70;;
16800;SDS011;8518;53.236;10.384;2023-02-13T22:26:27;38.57;;;24.10;;
16800;SDS011;8518;53.236;10.384;2023-02-13T22:28:56;35.63;;;24.00;;
16800;SDS011;8518;53.236;10.384;2023-02-13T22:31:23;35.63;;;22.90;;
16800;SDS011;8518;53.236;10.384;2023-02-13T22:33:49;32.50;;;22.00;;
16800;SDS011;8518;53.236;10.384;2023-02-13T22:36:15;34.63;;;22.40;;
16800;SDS011;8518;53.236;10.384;2023-02-13T22:38:42;40.23;;;23.37;;
16800;SDS011;8518;53.236;10.384;2023-02-13T22:41:15;37.17;;;23.03;;
16800;SDS011;8518;53.236;10.384;2023-02-13T22:43:42;34.10;;;22.67;;
16800;SDS011;8518;53.236;10.384;2023-02-13T22:46:12;37.77;;;22.47;;
16800;SDS011;8518;53.236;10.384;2023-02-13T22:48:44;37.93;;;23.40;;
16800;SDS011;8518;53.236;10.384;2023-02-13T22:51:11;36.27;;;24.03;;
16800;SDS011;8518;53.236;10.384;2023-02-13T22:53:41;35.00;;;22.27;;
16800;SDS011;8518;53.236;10.384;2023-02-13T22:56:08;35.87;;;21.93;;
16800;SDS011;8518;53.236;10.384;2023-02-13T22:58:35;34.03;;;22.10;;
16800;SDS011;8518;53.236;10.384;2023-02-13T23:01:01;32.63;;;22.13;;
16800;SDS011;8518;53.236;10.384;2023-02-13T23:03:34;32.50;;;21.50;;
16800;SDS011;8518;53.236;10.384;2023-02-13T23:06:01;33.13;;;22.00;;
16800;SDS011;8518;53.236;10.384;2023-02-13T23:08:31;35.33;;;22.27;;
16800;SDS011;8518;53.236;10.384;2023-02-13T23:11:02;36.10;;;22.70;;
16800;SDS011;8518;53.236;10.384;2023-02-13T23:13:50;35.10;;;23.17;;
16800;SDS011;8518;53.236;10.384;2023-02-13T23:16:16;32.17;;;21.43;;
16800;SDS011;8518;53.236;10.384;2023-02-13T23:18:41;35.40;;;22.83;;
16800;SDS011;8518;53.236;10.384;2023-02-13T23:21:07;36.10;;;22.03;;
16800;SDS011;8518;53.236;10.384;2023-02-13T23:23:50;33.10;;;21.97;;
16800;SDS011;8518;53.236;10.384;2023-02-13T23:26:16;35.53;;;22.97;;
16800;SDS011;8518;53.236;10.384;2023-02-13T23:28:42;33.67;;;22.37;;
16800;SDS011;8518;53.236;10.384;2023-02-13T23:31:07;35.73;;;22.70;;
16800;SDS011;8518;53.236;10.384;2023-02-13T23:33:33;38.30;;;23.60;;
16800;SDS011;8518;53.236;10.384;2023-02-13T23:35:59;36.10;;;22.07;;
16800;SDS011;8518;53.236;10.384;2023-02-13T23:38:24;35.00;;;22.67;;
16800;SDS011;8518;53.236;10.384;2023-02-13T23:40:50;33.57;;;21.93;;
16800;SDS011;8518;53.236;10.384;2023-02-13T23:43:20;34.73;;;22.93;;
16800;SDS011;8518;53.236;10.384;2023-02-13T23:45:46;34.47;;;22.67;;
16800;SDS011;8518;53.236;10.384;2023-02-13T23:48:11;34.50;;;21.97;;
16800;SDS011;8518;53.236;10.384;2023-02-13T23:50:37;36.17;;;22.57;;
16800;SDS011;8518;53.236;10.384;2023-02-13T23:53:07;39.60;;;25.00;;
16800;SDS011;8518;53.236;10.384;2023-02-13T23:55:32;38.40;;;23.30;;
16800;SDS011;8518;53.236;10.384;2023-02-13T23:57:59;37.70;;;23.37;;
